sensor_id;sensor_type;location;lat;lon;timestamp;temperature;humidity
21602;DHT22;10963;50.934;4.668;2023-08-17T00:02:23;21.70;99.90
21602;DHT22;10963;50.934;4.668;2023-08-17T00:04:49;21.70;99.90
21602;DHT22;10963;50.934;4.668;2023-08-17T00:07:15;21.70;99.90
21602;DHT22;10963;50.934;4.668;2023-08-17T00:09:43;21.70;99.90
21602;DHT22;10963;50.934;4.668;2023-08-17T00:12:11;21.70;99.90
21602;DHT22;10963;50.934;4.668;2023-08-17T00:14:41;21.80;99.90
21602;DHT22;10963;50.934;4.668;2023-08-17T00:17:07;21.80;99.90
21602;DHT22;10963;50.934;4.668;2023-08-17T00:19:35;21.70;99.90
21602;DHT22;10963;50.934;4.668;2023-08-17T00:22:00;21.70;99.90
21602;DHT22;10963;50.934;4.668;2023-08-17T00:24:29;21.70;99.90
21602;DHT22;10963;50.934;4.668;2023-08-17T00:26:54;21.50;99.90
21602;DHT22;10963;50.934;4.668;2023-08-17T00:29:20;21.40;99.90
21602;DHT22;10963;50.934;4.668;2023-08-17T00:31:48;21.40;99.90
21602;DHT22;10963;50.934;4.668;2023-08-17T00:34:14;21.40;99.90
21602;DHT22;10963;50.934;4.668;2023-08-17T00:36:42;21.40;99.90
21602;DHT22;10963;50.934;4.668;2023-08-17T00:39:08;21.40;99.90
21602;DHT22;10963;50.934;4.668;2023-08-17T00:41:36;21.30;99.90
21602;DHT22;10963;50.934;4.668;2023-08-17T00:44:02;21.40;99.90
21602;DHT22;10963;50.934;4.668;2023-08-17T00:46:28;21.30;99.90
21602;DHT22;10963;50.934;4.668;2023-08-17T00:48:58;21.40;99.90
21602;DHT22;10963;50.934;4.668;2023-08-17T00:51:24;21.30;99.90
21602;DHT22;10963;50.934;4.668;2023-08-17T00:53:56;21.30;99.90
21602;DHT22;10963;50.934;4.668;2023-08-17T00:56:27;21.40;99.90
21602;DHT22;10963;50.934;4.668;2023-08-17T00:58:56;21.40;99.90
21602;DHT22;10963;50.934;4.668;2023-08-17T01:01:22;21.40;99.90
21602;DHT22;10963;50.934;4.668;2023-08-17T01:03:48;21.40;99.90
21602;DHT22;10963;50.934;4.668;2023-08-17T01:06:14;21.40;99.90
21602;DHT22;10963;50.934;4.668;2023-08-17T01:08:41;21.50;99.90
21602;DHT22;10963;50.934;4.668;2023-08-17T01:11:22;21.50;99.90
21602;DHT22;10963;50.934;4.668;2023-08-17T01:16:26;21.40;99.90
21602;DHT22;10963;50.934;4.668;2023-08-17T01:18:54;21.40;99.90
21602;DHT22;10963;50.934;4.668;2023-08-17T01:21:22;21.40;99.90
21602;DHT22;10963;50.934;4.668;2023-08-17T01:23:52;21.40;99.90
21602;DHT22;10963;50.934;4.668;2023-08-17T01:26:25;21.40;99.90
21602;DHT22;10963;50.934;4.668;2023-08-17T01:28:51;21.40;99.90
21602;DHT22;10963;50.934;4.668;2023-08-17T01:31:25;21.30;99.90
21602;DHT22;10963;50.934;4.668;2023-08-17T01:34:03;21.20;99.90
21602;DHT22;10963;50.934;4.668;2023-08-17T01:36:46;21.30;99.90
21602;DHT22;10963;50.934;4.668;2023-08-17T01:39:13;21.40;99.90
21602;DHT22;10963;50.934;4.668;2023-08-17T01:41:41;21.30;99.90
21602;DHT22;10963;50.934;4.668;2023-08-17T01:44:07;21.30;99.90
21602;DHT22;10963;50.934;4.668;2023-08-17T01:46:33;21.30;99.90
21602;DHT22;10963;50.934;4.668;2023-08-17T01:49:04;21.30;99.90
21602;DHT22;10963;50.934;4.668;2023-08-17T01:51:32;21.20;99.90
21602;DHT22;10963;50.934;4.668;2023-08-17T01:53:57;21.30;99.90
21602;DHT22;10963;50.934;4.668;2023-08-17T01:56:26;21.20;99.90
21602;DHT22;10963;50.934;4.668;2023-08-17T01:58:51;21.30;99.90
21602;DHT22;10963;50.934;4.668;2023-08-17T02:01:17;21.20;99.90
21602;DHT22;10963;50.934;4.668;2023-08-17T02:03:43;21.30;99.90
21602;DHT22;10963;50.934;4.668;2023-08-17T02:06:10;21.20;99.90
21602;DHT22;10963;50.934;4.668;2023-08-17T02:08:37;21.10;99.90
21602;DHT22;10963;50.934;4.668;2023-08-17T02:11:05;21.30;99.90
21602;DHT22;10963;50.934;4.668;2023-08-17T02:13:35;21.20;99.90
21602;DHT22;10963;50.934;4.668;2023-08-17T02:16:07;21.10;99.90
21602;DHT22;10963;50.934;4.668;2023-08-17T02:18:33;21.10;99.90
21602;DHT22;10963;50.934;4.668;2023-08-17T02:21:00;20.90;99.90
21602;DHT22;10963;50.934;4.668;2023-08-17T02:23:26;21.10;99.90
21602;DHT22;10963;50.934;4.668;2023-08-17T02:25:52;20.90;99.90
21602;DHT22;10963;50.934;4.668;2023-08-17T02:28:17;20.90;99.90
21602;DHT22;10963;50.934;4.668;2023-08-17T02:30:45;20.90;99.90
21602;DHT22;10963;50.934;4.668;2023-08-17T02:33:14;21.00;99.90
21602;DHT22;10963;50.934;4.668;2023-08-17T02:35:40;20.90;99.90
21602;DHT22;10963;50.934;4.668;2023-08-17T02:38:10;20.90;99.90
21602;DHT22;10963;50.934;4.668;2023-08-17T02:40:35;20.80;99.90
21602;DHT22;10963;50.934;4.668;2023-08-17T02:43:06;20.70;99.90
21602;DHT22;10963;50.934;4.668;2023-08-17T02:45:33;20.80;99.90
21602;DHT22;10963;50.934;4.668;2023-08-17T02:48:02;20.80;99.90
21602;DHT22;10963;50.934;4.668;2023-08-17T02:50:28;20.90;99.90
21602;DHT22;10963;50.934;4.668;2023-08-17T02:52:56;20.70;99.90
21602;DHT22;10963;50.934;4.668;2023-08-17T02:55:21;20.60;99.90
21602;DHT22;10963;50.934;4.668;2023-08-17T02:57:49;20.60;99.90
21602;DHT22;10963;50.934;4.668;2023-08-17T03:00:15;20.40;99.90
21602;DHT22;10963;50.934;4.668;2023-08-17T03:02:41;20.40;99.90
21602;DHT22;10963;50.934;4.668;2023-08-17T03:05:06;20.20;99.90
21602;DHT22;10963;50.934;4.668;2023-08-17T03:07:32;20.30;99.90
21602;DHT22;10963;50.934;4.668;2023-08-17T03:10:00;20.20;99.90
21602;DHT22;10963;50.934;4.668;2023-08-17T03:12:33;20.10;99.90
21602;DHT22;10963;50.934;4.668;2023-08-17T03:15:01;20.20;99.90
21602;DHT22;10963;50.934;4.668;2023-08-17T03:17:27;20.10;99.90
21602;DHT22;10963;50.934;4.668;2023-08-17T03:19:53;20.10;99.90
21602;DHT22;10963;50.934;4.668;2023-08-17T03:22:18;20.20;99.90
21602;DHT22;10963;50.934;4.668;2023-08-17T03:24:46;20.20;99.90
21602;DHT22;10963;50.934;4.668;2023-08-17T03:27:12;20.10;99.90
21602;DHT22;10963;50.934;4.668;2023-08-17T03:29:40;20.10;99.90
21602;DHT22;10963;50.934;4.668;2023-08-17T03:32:06;20.10;99.90
21602;DHT22;10963;50.934;4.668;2023-08-17T03:34:31;20.20;99.90
21602;DHT22;10963;50.934;4.668;2023-08-17T03:36:57;20.20;99.90
21602;DHT22;10963;50.934;4.668;2023-08-17T03:39:27;20.30;99.90
21602;DHT22;10963;50.934;4.668;2023-08-17T03:41:53;20.20;99.90
21602;DHT22;10963;50.934;4.668;2023-08-17T03:44:18;20.20;99.90
21602;DHT22;10963;50.934;4.668;2023-08-17T03:46:46;20.20;99.90
21602;DHT22;10963;50.934;4.668;2023-08-17T03:49:14;20.10;99.90
21602;DHT22;10963;50.934;4.668;2023-08-17T03:51:40;20.10;99.90
21602;DHT22;10963;50.934;4.668;2023-08-17T03:54:08;20.10;99.90
21602;DHT22;10963;50.934;4.668;2023-08-17T03:56:35;20.20;99.90
21602;DHT22;10963;50.934;4.668;2023-08-17T03:59:00;20.30;99.90
21602;DHT22;10963;50.934;4.668;2023-08-17T04:01:26;20.10;99.90
21602;DHT22;10963;50.934;4.668;2023-08-17T04:03:52;20.10;99.90
21602;DHT22;10963;50.934;4.668;2023-08-17T04:06:20;20.10;99.90
21602;DHT22;10963;50.934;4.668;2023-08-17T04:08:46;20.30;99.90
21602;DHT22;10963;50.934;4.668;2023-08-17T04:11:14;20.10;99.90
21602;DHT22;10963;50.934;4.668;2023-08-17T04:13:40;20.10;99.90
21602;DHT22;10963;50.934;4.668;2023-08-17T04:16:08;20.10;99.90
21602;DHT22;10963;50.934;4.668;2023-08-17T04:18:36;20.20;99.90
21602;DHT22;10963;50.934;4.668;2023-08-17T04:21:02;20.20;99.90
21602;DHT22;10963;50.934;4.668;2023-08-17T04:23:27;20.10;99.90
21602;DHT22;10963;50.934;4.668;2023-08-17T04:25:56;20.30;99.90
21602;DHT22;10963;50.934;4.668;2023-08-17T04:28:24;20.30;99.90
21602;DHT22;10963;50.934;4.668;2023-08-17T04:30:50;20.20;99.90
21602;DHT22;10963;50.934;4.668;2023-08-17T04:33:16;20.10;99.90
21602;DHT22;10963;50.934;4.668;2023-08-17T04:35:47;20.10;99.90
21602;DHT22;10963;50.934;4.668;2023-08-17T04:38:16;20.00;99.90
21602;DHT22;10963;50.934;4.668;2023-08-17T04:40:41;20.00;99.90
21602;DHT22;10963;50.934;4.668;2023-08-17T04:43:07;20.00;99.90
21602;DHT22;10963;50.934;4.668;2023-08-17T04:45:33;20.10;99.90
21602;DHT22;10963;50.934;4.668;2023-08-17T04:48:01;20.10;99.90
21602;DHT22;10963;50.934;4.668;2023-08-17T04:50:29;20.10;99.90
21602;DHT22;10963;50.934;4.668;2023-08-17T04:52:55;20.20;99.90
21602;DHT22;10963;50.934;4.668;2023-08-17T04:55:20;20.20;99.90
21602;DHT22;10963;50.934;4.668;2023-08-17T04:57:46;20.10;99.90
21602;DHT22;10963;50.934;4.668;2023-08-17T05:00:14;20.10;99.90
21602;DHT22;10963;50.934;4.668;2023-08-17T05:02:45;20.10;99.90
21602;DHT22;10963;50.934;4.668;2023-08-17T05:05:11;20.10;99.90
21602;DHT22;10963;50.934;4.668;2023-08-17T05:07:36;19.90;99.90
21602;DHT22;10963;50.934;4.668;2023-08-17T05:10:02;20.00;99.90
21602;DHT22;10963;50.934;4.668;2023-08-17T05:12:30;20.10;99.90
21602;DHT22;10963;50.934;4.668;2023-08-17T05:14:56;20.10;99.90
21602;DHT22;10963;50.934;4.668;2023-08-17T05:17:22;20.30;99.90
21602;DHT22;10963;50.934;4.668;2023-08-17T05:19:52;20.10;99.90
21602;DHT22;10963;50.934;4.668;2023-08-17T05:22:19;20.20;99.90
21602;DHT22;10963;50.934;4.668;2023-08-17T05:24:48;20.10;99.90
21602;DHT22;10963;50.934;4.668;2023-08-17T05:27:13;20.20;99.90
21602;DHT22;10963;50.934;4.668;2023-08-17T05:29:39;20.10;99.90
21602;DHT22;10963;50.934;4.668;2023-08-17T05:32:05;20.10;99.90
21602;DHT22;10963;50.934;4.668;2023-08-17T05:34:31;20.00;99.90
21602;DHT22;10963;50.934;4.668;2023-08-17T05:36:57;20.10;99.90
21602;DHT22;10963;50.934;4.668;2023-08-17T05:39:26;20.00;99.90
21602;DHT22;10963;50.934;4.668;2023-08-17T05:41:51;20.00;99.90
21602;DHT22;10963;50.934;4.668;2023-08-17T05:44:17;20.10;99.90
21602;DHT22;10963;50.934;4.668;2023-08-17T05:46:45;20.00;99.90
21602;DHT22;10963;50.934;4.668;2023-08-17T05:49:11;20.10;99.90
21602;DHT22;10963;50.934;4.668;2023-08-17T05:51:39;20.30;99.90
21602;DHT22;10963;50.934;4.668;2023-08-17T05:54:07;20.30;99.90
21602;DHT22;10963;50.934;4.668;2023-08-17T05:56:33;20.40;99.90
21602;DHT22;10963;50.934;4.668;2023-08-17T05:58:59;20.30;99.90
21602;DHT22;10963;50.934;4.668;2023-08-17T06:01:27;20.30;99.90
21602;DHT22;10963;50.934;4.668;2023-08-17T06:03:53;20.40;99.90
21602;DHT22;10963;50.934;4.668;2023-08-17T06:06:23;20.20;99.90
21602;DHT22;10963;50.934;4.668;2023-08-17T06:08:49;20.20;99.90
21602;DHT22;10963;50.934;4.668;2023-08-17T06:11:17;20.30;99.90
21602;DHT22;10963;50.934;4.668;2023-08-17T06:13:43;20.40;99.90
21602;DHT22;10963;50.934;4.668;2023-08-17T06:16:09;20.50;99.90
21602;DHT22;10963;50.934;4.668;2023-08-17T06:18:38;20.50;99.90
21602;DHT22;10963;50.934;4.668;2023-08-17T06:21:04;20.40;99.90
21602;DHT22;10963;50.934;4.668;2023-08-17T06:23:32;20.50;99.90
21602;DHT22;10963;50.934;4.668;2023-08-17T06:26:03;20.40;99.90
21602;DHT22;10963;50.934;4.668;2023-08-17T06:28:30;20.40;99.90
21602;DHT22;10963;50.934;4.668;2023-08-17T06:30:56;20.20;99.90
21602;DHT22;10963;50.934;4.668;2023-08-17T06:33:24;19.90;99.90
21602;DHT22;10963;50.934;4.668;2023-08-17T06:35:50;19.90;99.90
21602;DHT22;10963;50.934;4.668;2023-08-17T06:38:16;19.80;99.90
21602;DHT22;10963;50.934;4.668;2023-08-17T06:40:41;19.80;99.90
21602;DHT22;10963;50.934;4.668;2023-08-17T06:43:07;19.90;99.90
21602;DHT22;10963;50.934;4.668;2023-08-17T06:45:33;19.90;99.90
21602;DHT22;10963;50.934;4.668;2023-08-17T06:47:59;19.90;99.90
21602;DHT22;10963;50.934;4.668;2023-08-17T06:50:25;20.00;99.90
21602;DHT22;10963;50.934;4.668;2023-08-17T06:52:54;20.00;99.90
21602;DHT22;10963;50.934;4.668;2023-08-17T06:55:20;20.00;99.90
21602;DHT22;10963;50.934;4.668;2023-08-17T06:57:47;19.90;99.90
21602;DHT22;10963;50.934;4.668;2023-08-17T07:00:13;19.90;99.90
21602;DHT22;10963;50.934;4.668;2023-08-17T07:02:39;19.90;99.90
21602;DHT22;10963;50.934;4.668;2023-08-17T07:05:09;19.80;99.90
21602;DHT22;10963;50.934;4.668;2023-08-17T07:07:35;19.90;99.90
21602;DHT22;10963;50.934;4.668;2023-08-17T07:10:01;19.90;99.90
21602;DHT22;10963;50.934;4.668;2023-08-17T07:12:27;19.90;99.90
21602;DHT22;10963;50.934;4.668;2023-08-17T07:14:53;19.60;99.90
21602;DHT22;10963;50.934;4.668;2023-08-17T07:17:22;19.50;99.90
21602;DHT22;10963;50.934;4.668;2023-08-17T07:19:47;19.50;99.90
21602;DHT22;10963;50.934;4.668;2023-08-17T07:22:13;19.60;99.90
21602;DHT22;10963;50.934;4.668;2023-08-17T07:24:42;19.70;99.90
21602;DHT22;10963;50.934;4.668;2023-08-17T07:27:07;19.90;99.90
21602;DHT22;10963;50.934;4.668;2023-08-17T07:29:35;20.20;99.90
21602;DHT22;10963;50.934;4.668;2023-08-17T07:32:04;20.30;99.90
21602;DHT22;10963;50.934;4.668;2023-08-17T07:34:36;20.40;99.90
21602;DHT22;10963;50.934;4.668;2023-08-17T07:37:03;20.50;99.90
21602;DHT22;10963;50.934;4.668;2023-08-17T07:39:29;20.60;99.90
21602;DHT22;10963;50.934;4.668;2023-08-17T07:41:57;20.60;99.90
21602;DHT22;10963;50.934;4.668;2023-08-17T07:44:25;20.70;99.90
21602;DHT22;10963;50.934;4.668;2023-08-17T07:46:53;20.80;99.90
21602;DHT22;10963;50.934;4.668;2023-08-17T07:49:19;20.80;99.90
21602;DHT22;10963;50.934;4.668;2023-08-17T07:51:45;21.00;99.90
21602;DHT22;10963;50.934;4.668;2023-08-17T07:54:11;21.00;99.90
21602;DHT22;10963;50.934;4.668;2023-08-17T07:56:37;21.10;99.90
21602;DHT22;10963;50.934;4.668;2023-08-17T07:59:03;21.20;99.90
21602;DHT22;10963;50.934;4.668;2023-08-17T08:01:28;20.90;99.90
21602;DHT22;10963;50.934;4.668;2023-08-17T08:03:54;20.80;99.90
21602;DHT22;10963;50.934;4.668;2023-08-17T08:06:20;20.70;99.90
21602;DHT22;10963;50.934;4.668;2023-08-17T08:08:48;20.60;99.90
21602;DHT22;10963;50.934;4.668;2023-08-17T08:11:14;20.70;99.90
21602;DHT22;10963;50.934;4.668;2023-08-17T08:13:42;20.70;99.90
21602;DHT22;10963;50.934;4.668;2023-08-17T08:16:10;20.60;99.90
21602;DHT22;10963;50.934;4.668;2023-08-17T08:18:38;20.70;99.90
21602;DHT22;10963;50.934;4.668;2023-08-17T08:21:04;20.80;99.90
21602;DHT22;10963;50.934;4.668;2023-08-17T08:23:30;20.90;99.90
21602;DHT22;10963;50.934;4.668;2023-08-17T08:25:55;21.10;99.90
21602;DHT22;10963;50.934;4.668;2023-08-17T08:28:23;21.20;99.90
21602;DHT22;10963;50.934;4.668;2023-08-17T08:30:49;21.30;99.90
21602;DHT22;10963;50.934;4.668;2023-08-17T08:33:15;21.40;99.90
21602;DHT22;10963;50.934;4.668;2023-08-17T08:35:41;21.60;99.90
21602;DHT22;10963;50.934;4.668;2023-08-17T08:38:06;21.70;99.90
21602;DHT22;10963;50.934;4.668;2023-08-17T08:40:37;22.00;99.90
21602;DHT22;10963;50.934;4.668;2023-08-17T08:43:03;22.00;99.90
21602;DHT22;10963;50.934;4.668;2023-08-17T08:45:30;21.80;99.90
21602;DHT22;10963;50.934;4.668;2023-08-17T08:47:57;21.60;99.90
21602;DHT22;10963;50.934;4.668;2023-08-17T08:50:28;21.60;99.90
21602;DHT22;10963;50.934;4.668;2023-08-17T08:53:07;22.00;99.90
21602;DHT22;10963;50.934;4.668;2023-08-17T08:55:49;22.20;99.90
21602;DHT22;10963;50.934;4.668;2023-08-17T08:58:17;22.20;99.90
21602;DHT22;10963;50.934;4.668;2023-08-17T09:00:46;22.10;99.90
21602;DHT22;10963;50.934;4.668;2023-08-17T09:03:16;22.10;99.90
21602;DHT22;10963;50.934;4.668;2023-08-17T09:05:49;22.30;99.90
21602;DHT22;10963;50.934;4.668;2023-08-17T09:08:20;22.10;99.90
21602;DHT22;10963;50.934;4.668;2023-08-17T09:10:46;22.10;99.90
21602;DHT22;10963;50.934;4.668;2023-08-17T09:13:17;22.30;99.90
21602;DHT22;10963;50.934;4.668;2023-08-17T09:15:45;22.10;99.90
21602;DHT22;10963;50.934;4.668;2023-08-17T09:18:13;22.10;99.90
21602;DHT22;10963;50.934;4.668;2023-08-17T09:20:44;22.20;99.90
21602;DHT22;10963;50.934;4.668;2023-08-17T09:25:39;22.10;99.90
21602;DHT22;10963;50.934;4.668;2023-08-17T09:28:09;22.10;99.90
21602;DHT22;10963;50.934;4.668;2023-08-17T09:30:58;21.90;99.90
21602;DHT22;10963;50.934;4.668;2023-08-17T09:33:27;22.00;99.90
21602;DHT22;10963;50.934;4.668;2023-08-17T09:35:54;22.00;99.90
21602;DHT22;10963;50.934;4.668;2023-08-17T09:38:20;22.40;99.90
21602;DHT22;10963;50.934;4.668;2023-08-17T09:40:47;22.80;99.90
21602;DHT22;10963;50.934;4.668;2023-08-17T09:43:17;22.60;99.90
21602;DHT22;10963;50.934;4.668;2023-08-17T09:45:46;22.70;99.90
21602;DHT22;10963;50.934;4.668;2023-08-17T09:48:16;22.60;99.90
21602;DHT22;10963;50.934;4.668;2023-08-17T09:50:47;22.80;99.90
21602;DHT22;10963;50.934;4.668;2023-08-17T09:53:19;22.80;99.90
21602;DHT22;10963;50.934;4.668;2023-08-17T09:55:45;22.90;99.90
21602;DHT22;10963;50.934;4.668;2023-08-17T09:58:14;22.80;99.90
21602;DHT22;10963;50.934;4.668;2023-08-17T10:00:48;22.80;99.90
21602;DHT22;10963;50.934;4.668;2023-08-17T10:03:15;22.80;99.90
21602;DHT22;10963;50.934;4.668;2023-08-17T10:05:50;22.90;99.90
21602;DHT22;10963;50.934;4.668;2023-08-17T10:08:19;23.10;99.90
21602;DHT22;10963;50.934;4.668;2023-08-17T10:10:46;23.70;99.90
21602;DHT22;10963;50.934;4.668;2023-08-17T10:13:30;23.70;99.90
21602;DHT22;10963;50.934;4.668;2023-08-17T10:16:04;23.80;99.90
21602;DHT22;10963;50.934;4.668;2023-08-17T10:19:20;23.80;99.90
21602;DHT22;10963;50.934;4.668;2023-08-17T10:22:06;23.70;99.90
21602;DHT22;10963;50.934;4.668;2023-08-17T10:24:36;23.90;99.90
21602;DHT22;10963;50.934;4.668;2023-08-17T10:27:05;24.30;99.90
21602;DHT22;10963;50.934;4.668;2023-08-17T10:29:32;24.60;99.90
21602;DHT22;10963;50.934;4.668;2023-08-17T10:32:01;24.70;99.90
21602;DHT22;10963;50.934;4.668;2023-08-17T10:34:28;25.00;99.90
21602;DHT22;10963;50.934;4.668;2023-08-17T10:36:56;25.10;99.90
21602;DHT22;10963;50.934;4.668;2023-08-17T10:39:29;24.70;99.90
21602;DHT22;10963;50.934;4.668;2023-08-17T10:41:58;24.90;99.90
21602;DHT22;10963;50.934;4.668;2023-08-17T10:49:56;24.20;99.90
21602;DHT22;10963;50.934;4.668;2023-08-17T10:52:44;24.20;99.90
21602;DHT22;10963;50.934;4.668;2023-08-17T10:55:10;24.20;99.90
21602;DHT22;10963;50.934;4.668;2023-08-17T11:02:42;23.90;99.90
21602;DHT22;10963;50.934;4.668;2023-08-17T11:05:09;23.90;99.90
21602;DHT22;10963;50.934;4.668;2023-08-17T11:07:42;23.70;99.90
21602;DHT22;10963;50.934;4.668;2023-08-17T11:10:26;23.60;99.90
21602;DHT22;10963;50.934;4.668;2023-08-17T11:12:58;23.50;99.90
21602;DHT22;10963;50.934;4.668;2023-08-17T11:15:42;23.50;99.90
21602;DHT22;10963;50.934;4.668;2023-08-17T11:18:11;23.40;99.90
21602;DHT22;10963;50.934;4.668;2023-08-17T11:20:41;23.40;99.90
21602;DHT22;10963;50.934;4.668;2023-08-17T11:23:08;23.50;99.90
21602;DHT22;10963;50.934;4.668;2023-08-17T11:25:34;23.60;99.90
21602;DHT22;10963;50.934;4.668;2023-08-17T11:28:01;23.90;99.90
21602;DHT22;10963;50.934;4.668;2023-08-17T11:30:27;24.00;99.90
21602;DHT22;10963;50.934;4.668;2023-08-17T11:32:54;24.00;99.90
21602;DHT22;10963;50.934;4.668;2023-08-17T11:35:22;24.30;99.90
21602;DHT22;10963;50.934;4.668;2023-08-17T11:37:48;24.00;99.90
21602;DHT22;10963;50.934;4.668;2023-08-17T11:40:15;23.80;99.90
21602;DHT22;10963;50.934;4.668;2023-08-17T11:42:42;24.10;99.90
21602;DHT22;10963;50.934;4.668;2023-08-17T11:45:10;24.40;99.90
21602;DHT22;10963;50.934;4.668;2023-08-17T11:47:41;24.20;99.90
21602;DHT22;10963;50.934;4.668;2023-08-17T11:50:10;24.20;99.90
21602;DHT22;10963;50.934;4.668;2023-08-17T11:52:37;24.10;99.90
21602;DHT22;10963;50.934;4.668;2023-08-17T11:55:07;23.90;99.90
21602;DHT22;10963;50.934;4.668;2023-08-17T11:57:35;23.70;99.90
21602;DHT22;10963;50.934;4.668;2023-08-17T12:00:07;23.90;99.90
21602;DHT22;10963;50.934;4.668;2023-08-17T12:02:38;23.70;99.90
21602;DHT22;10963;50.934;4.668;2023-08-17T12:05:10;23.70;99.90
21602;DHT22;10963;50.934;4.668;2023-08-17T12:07:37;23.50;99.90
21602;DHT22;10963;50.934;4.668;2023-08-17T12:10:05;23.90;99.90
21602;DHT22;10963;50.934;4.668;2023-08-17T12:12:36;24.10;99.90
21602;DHT22;10963;50.934;4.668;2023-08-17T12:15:03;24.20;99.90
21602;DHT22;10963;50.934;4.668;2023-08-17T12:17:32;24.30;99.90
21602;DHT22;10963;50.934;4.668;2023-08-17T12:19:58;24.20;99.90
21602;DHT22;10963;50.934;4.668;2023-08-17T12:22:25;23.90;99.90
21602;DHT22;10963;50.934;4.668;2023-08-17T12:24:52;23.80;99.90
21602;DHT22;10963;50.934;4.668;2023-08-17T12:27:18;23.70;99.90
21602;DHT22;10963;50.934;4.668;2023-08-17T12:29:51;23.80;99.90
21602;DHT22;10963;50.934;4.668;2023-08-17T12:32:18;24.00;99.90
21602;DHT22;10963;50.934;4.668;2023-08-17T12:34:45;24.10;99.90
21602;DHT22;10963;50.934;4.668;2023-08-17T12:37:11;24.30;99.90
21602;DHT22;10963;50.934;4.668;2023-08-17T12:39:38;24.70;99.90
21602;DHT22;10963;50.934;4.668;2023-08-17T12:42:04;24.70;99.90
21602;DHT22;10963;50.934;4.668;2023-08-17T12:44:31;24.50;99.90
21602;DHT22;10963;50.934;4.668;2023-08-17T12:46:57;24.70;99.90
21602;DHT22;10963;50.934;4.668;2023-08-17T12:49:25;24.70;99.90
21602;DHT22;10963;50.934;4.668;2023-08-17T12:51:53;24.90;99.90
21602;DHT22;10963;50.934;4.668;2023-08-17T12:54:21;24.80;99.90
21602;DHT22;10963;50.934;4.668;2023-08-17T12:56:47;25.10;99.90
21602;DHT22;10963;50.934;4.668;2023-08-17T12:59:13;25.40;99.90
21602;DHT22;10963;50.934;4.668;2023-08-17T13:01:39;25.40;99.90
21602;DHT22;10963;50.934;4.668;2023-08-17T13:04:05;25.40;99.90
21602;DHT22;10963;50.934;4.668;2023-08-17T13:06:31;25.30;99.90
21602;DHT22;10963;50.934;4.668;2023-08-17T13:08:57;25.00;99.90
21602;DHT22;10963;50.934;4.668;2023-08-17T13:11:25;24.70;99.90
21602;DHT22;10963;50.934;4.668;2023-08-17T13:13:53;24.40;99.90
21602;DHT22;10963;50.934;4.668;2023-08-17T13:16:21;24.50;99.90
21602;DHT22;10963;50.934;4.668;2023-08-17T13:18:48;24.40;99.90
21602;DHT22;10963;50.934;4.668;2023-08-17T13:21:14;24.10;99.90
21602;DHT22;10963;50.934;4.668;2023-08-17T13:23:41;23.90;99.90
21602;DHT22;10963;50.934;4.668;2023-08-17T13:26:07;23.70;99.90
21602;DHT22;10963;50.934;4.668;2023-08-17T13:28:33;23.80;99.90
21602;DHT22;10963;50.934;4.668;2023-08-17T13:30:58;23.70;99.90
21602;DHT22;10963;50.934;4.668;2023-08-17T13:33:26;23.60;99.90
21602;DHT22;10963;50.934;4.668;2023-08-17T13:35:52;23.70;99.90
21602;DHT22;10963;50.934;4.668;2023-08-17T13:38:18;23.60;99.90
21602;DHT22;10963;50.934;4.668;2023-08-17T13:40:44;23.60;99.90
21602;DHT22;10963;50.934;4.668;2023-08-17T13:43:12;23.80;99.90
21602;DHT22;10963;50.934;4.668;2023-08-17T13:45:40;24.00;99.90
21602;DHT22;10963;50.934;4.668;2023-08-17T13:48:07;24.20;99.90
21602;DHT22;10963;50.934;4.668;2023-08-17T13:50:38;24.30;99.90
21602;DHT22;10963;50.934;4.668;2023-08-17T13:53:07;24.30;99.90
21602;DHT22;10963;50.934;4.668;2023-08-17T13:55:38;24.30;99.90
21602;DHT22;10963;50.934;4.668;2023-08-17T13:58:04;24.30;99.90
21602;DHT22;10963;50.934;4.668;2023-08-17T14:00:32;24.50;99.90
21602;DHT22;10963;50.934;4.668;2023-08-17T14:03:00;24.60;99.90
21602;DHT22;10963;50.934;4.668;2023-08-17T14:05:26;24.60;99.90
21602;DHT22;10963;50.934;4.668;2023-08-17T14:07:51;24.60;99.90
21602;DHT22;10963;50.934;4.668;2023-08-17T14:10:19;24.60;99.90
21602;DHT22;10963;50.934;4.668;2023-08-17T14:12:45;24.60;99.90
21602;DHT22;10963;50.934;4.668;2023-08-17T14:15:13;24.60;99.90
21602;DHT22;10963;50.934;4.668;2023-08-17T14:17:39;24.80;99.90
21602;DHT22;10963;50.934;4.668;2023-08-17T14:20:05;24.80;99.90
21602;DHT22;10963;50.934;4.668;2023-08-17T14:22:31;24.70;99.90
21602;DHT22;10963;50.934;4.668;2023-08-17T14:25:00;24.70;99.90
21602;DHT22;10963;50.934;4.668;2023-08-17T14:27:25;24.60;99.90
21602;DHT22;10963;50.934;4.668;2023-08-17T14:29:51;24.70;99.90
21602;DHT22;10963;50.934;4.668;2023-08-17T14:32:17;24.80;99.90
21602;DHT22;10963;50.934;4.668;2023-08-17T14:34:42;24.90;99.90
21602;DHT22;10963;50.934;4.668;2023-08-17T14:37:08;25.10;99.90
21602;DHT22;10963;50.934;4.668;2023-08-17T14:39:34;25.10;99.90
21602;DHT22;10963;50.934;4.668;2023-08-17T14:42:00;25.10;99.90
21602;DHT22;10963;50.934;4.668;2023-08-17T14:44:25;25.10;99.90
21602;DHT22;10963;50.934;4.668;2023-08-17T14:46:53;24.90;99.90
21602;DHT22;10963;50.934;4.668;2023-08-17T14:49:21;24.60;99.90
21602;DHT22;10963;50.934;4.668;2023-08-17T14:51:47;24.30;99.90
21602;DHT22;10963;50.934;4.668;2023-08-17T14:54:13;23.90;99.90
21602;DHT22;10963;50.934;4.668;2023-08-17T14:56:41;23.90;99.90
21602;DHT22;10963;50.934;4.668;2023-08-17T14:59:14;23.80;99.90
21602;DHT22;10963;50.934;4.668;2023-08-17T15:01:40;24.00;99.90
21602;DHT22;10963;50.934;4.668;2023-08-17T15:04:08;24.00;99.90
21602;DHT22;10963;50.934;4.668;2023-08-17T15:06:34;23.80;99.90
21602;DHT22;10963;50.934;4.668;2023-08-17T15:08:59;23.80;99.90
21602;DHT22;10963;50.934;4.668;2023-08-17T15:11:25;23.90;99.90
21602;DHT22;10963;50.934;4.668;2023-08-17T15:13:53;24.20;99.90
21602;DHT22;10963;50.934;4.668;2023-08-17T15:16:19;24.30;99.90
21602;DHT22;10963;50.934;4.668;2023-08-17T15:18:51;24.20;99.90
21602;DHT22;10963;50.934;4.668;2023-08-17T15:21:17;24.20;99.90
21602;DHT22;10963;50.934;4.668;2023-08-17T15:23:42;24.20;99.90
21602;DHT22;10963;50.934;4.668;2023-08-17T15:26:08;24.30;99.90
21602;DHT22;10963;50.934;4.668;2023-08-17T15:28:36;24.40;99.90
21602;DHT22;10963;50.934;4.668;2023-08-17T15:31:03;24.40;99.90
21602;DHT22;10963;50.934;4.668;2023-08-17T15:33:34;24.30;99.90
21602;DHT22;10963;50.934;4.668;2023-08-17T15:36:02;24.40;99.90
21602;DHT22;10963;50.934;4.668;2023-08-17T15:38:28;24.60;99.90
21602;DHT22;10963;50.934;4.668;2023-08-17T15:40:56;24.50;99.90
21602;DHT22;10963;50.934;4.668;2023-08-17T15:43:26;24.60;99.90
21602;DHT22;10963;50.934;4.668;2023-08-17T15:45:52;24.30;99.90
21602;DHT22;10963;50.934;4.668;2023-08-17T15:48:22;24.30;99.90
21602;DHT22;10963;50.934;4.668;2023-08-17T15:50:53;24.30;99.90